createdAt,value
2023-01-21T00:01:02.764Z,15.20
2023-01-21T00:03:06.883Z,13.88
2023-01-21T00:05:10.341Z,15.90
2023-01-21T00:07:12.999Z,13.77
2023-01-21T00:09:15.974Z,13.13
2023-01-21T00:11:18.628Z,12.00
2023-01-21T00:13:21.268Z,13.00
2023-01-21T00:15:23.994Z,12.80
2023-01-21T00:17:26.633Z,12.75
2023-01-21T00:19:30.636Z,12.65
2023-01-21T00:21:33.294Z,14.52
2023-01-21T00:23:36.032Z,13.80
2023-01-21T00:25:38.713Z,13.85
2023-01-21T00:27:41.562Z,12.38
2023-01-21T00:29:44.219Z,12.75
2023-01-21T00:31:46.949Z,13.23
2023-01-21T00:33:50.368Z,13.02
2023-01-21T00:36:00.487Z,13.27
2023-01-21T00:38:03.150Z,13.90
2023-01-21T00:40:07.680Z,13.60
2023-01-21T00:42:11.158Z,12.68
2023-01-21T00:44:13.900Z,12.73
2023-01-21T00:46:16.997Z,12.82
2023-01-21T00:48:19.687Z,14.63
2023-01-21T00:50:22.408Z,13.35
2023-01-21T00:52:27.112Z,13.20
2023-01-21T00:54:31.259Z,12.82
2023-01-21T00:56:34.018Z,14.35
2023-01-21T00:58:37.525Z,15.23
2023-01-21T01:00:40.520Z,13.95
2023-01-21T01:02:43.317Z,12.13
2023-01-21T01:04:46.047Z,12.35
2023-01-21T01:06:48.778Z,11.68
2023-01-21T01:08:54.240Z,11.07
2023-01-21T01:10:56.981Z,11.25
2023-01-21T01:13:01.446Z,11.40
2023-01-21T01:15:04.592Z,11.32
2023-01-21T01:17:07.312Z,11.65
2023-01-21T01:19:10.928Z,12.40
2023-01-21T01:21:15.358Z,11.45
2023-01-21T01:23:18.072Z,12.63
2023-01-21T01:25:22.207Z,12.48
2023-01-21T01:27:25.005Z,12.23
2023-01-21T01:29:28.486Z,12.55
2023-01-21T01:31:31.241Z,13.88
2023-01-21T01:33:34.616Z,12.27
2023-01-21T01:35:37.318Z,14.07
2023-01-21T01:37:40.070Z,16.50
2023-01-21T01:39:42.844Z,14.85
2023-01-21T01:41:46.930Z,15.45
2023-01-21T01:44:01.042Z,14.38
2023-01-21T01:46:03.850Z,12.93
2023-01-21T01:48:06.715Z,12.70
2023-01-21T01:50:13.889Z,11.93
2023-01-21T01:52:18.211Z,13.13
2023-01-21T01:54:25.464Z,53.92
2023-01-21T01:56:30.199Z,31.80
2023-01-21T01:58:35.424Z,18.35
2023-01-21T02:00:38.671Z,14.18
2023-01-21T02:03:04.203Z,14.05
2023-01-21T02:05:10.245Z,12.35
2023-01-21T02:07:13.281Z,12.60
2023-01-21T02:09:15.996Z,13.20
2023-01-21T02:11:20.560Z,12.85
2023-01-21T02:13:24.582Z,13.73
2023-01-21T02:15:36.872Z,13.43
2023-01-21T02:17:55.262Z,12.82
2023-01-21T02:20:33.380Z,13.13
2023-01-21T02:22:41.348Z,14.77
2023-01-21T02:25:21.085Z,13.98
2023-01-21T02:27:40.413Z,14.02
2023-01-21T02:30:13.976Z,14.07
2023-01-21T02:32:53.457Z,14.73
2023-01-21T02:35:02.232Z,14.95
2023-01-21T02:37:11.990Z,15.55
2023-01-21T02:39:27.338Z,14.02
2023-01-21T02:41:42.835Z,14.30
2023-01-21T02:43:54.795Z,14.43
2023-01-21T02:46:02.831Z,13.65
2023-01-21T02:48:12.413Z,13.05
2023-01-21T02:50:23.027Z,14.55
2023-01-21T02:52:26.742Z,14.10
2023-01-21T02:54:53.183Z,14.15
2023-01-21T02:56:55.846Z,13.70
2023-01-21T02:59:02.840Z,13.40
2023-01-21T03:01:16.558Z,14.32
2023-01-21T03:03:53.750Z,15.27
2023-01-21T03:06:26.783Z,13.00
2023-01-21T03:08:34.010Z,14.38
2023-01-21T03:10:41.808Z,13.38
2023-01-21T03:12:56.889Z,13.43
2023-01-21T03:15:23.116Z,13.88
2023-01-21T03:17:35.430Z,13.68
2023-01-21T03:19:44.095Z,14.30
2023-01-21T03:21:50.002Z,13.65
2023-01-21T03:23:54.873Z,13.07
2023-01-21T03:25:59.737Z,12.18
2023-01-21T03:28:07.527Z,13.88
2023-01-21T03:30:14.465Z,12.75
2023-01-21T03:32:19.339Z,13.80
2023-01-21T03:34:26.515Z,14.15
2023-01-21T03:36:37.187Z,14.18
2023-01-21T03:38:48.982Z,13.63
2023-01-21T03:40:57.493Z,13.55
2023-01-21T03:43:00.396Z,13.90
2023-01-21T03:45:03.621Z,13.35
2023-01-21T03:47:15.798Z,13.23
2023-01-21T03:49:23.809Z,13.20
2023-01-21T03:51:33.876Z,13.13
2023-01-21T03:53:36.651Z,13.18
2023-01-21T03:55:41.230Z,12.93
2023-01-21T03:57:43.980Z,13.55
2023-01-21T03:59:46.670Z,13.40
2023-01-21T04:01:49.364Z,12.65
2023-01-21T04:03:52.049Z,11.90
2023-01-21T04:05:54.736Z,12.65
2023-01-21T04:07:57.359Z,12.25
2023-01-21T04:10:00.051Z,11.80
2023-01-21T04:12:04.417Z,12.30
2023-01-21T04:14:07.126Z,12.23
2023-01-21T04:16:10.193Z,13.13
2023-01-21T04:18:12.843Z,12.38
2023-01-21T04:20:16.096Z,12.27
2023-01-21T04:22:19.411Z,11.85
2023-01-21T04:24:22.059Z,11.68
2023-01-21T04:26:24.766Z,12.85
2023-01-21T04:28:29.783Z,12.25
2023-01-21T04:30:32.486Z,12.80
2023-01-21T04:32:37.113Z,12.50
2023-01-21T04:34:39.726Z,11.73
2023-01-21T04:36:42.373Z,11.43
2023-01-21T04:38:46.179Z,11.98
2023-01-21T04:40:48.858Z,11.60
2023-01-21T04:42:51.598Z,12.63
2023-01-21T04:44:55.641Z,12.13
2023-01-21T04:46:58.443Z,13.05
2023-01-21T04:49:01.135Z,12.73
2023-01-21T04:51:04.087Z,12.75
2023-01-21T04:53:06.802Z,13.07
2023-01-21T04:55:10.551Z,13.00
2023-01-21T04:57:13.318Z,12.52
2023-01-21T04:59:16.081Z,13.13
2023-01-21T05:01:20.301Z,12.57
2023-01-21T05:03:23.073Z,12.05
2023-01-21T05:05:25.823Z,12.80
2023-01-21T05:07:28.779Z,12.30
2023-01-21T05:09:31.466Z,12.55
2023-01-21T05:11:34.155Z,13.25
2023-01-21T05:13:36.832Z,12.52
2023-01-21T05:15:39.612Z,12.93
2023-01-21T05:17:43.731Z,12.75
2023-01-21T05:19:47.101Z,13.25
2023-01-21T05:21:49.790Z,11.95
2023-01-21T05:23:52.501Z,11.70
2023-01-21T05:25:55.412Z,11.93
2023-01-21T05:27:58.086Z,12.60
2023-01-21T05:30:00.785Z,12.93
2023-01-21T05:32:03.481Z,10.98
2023-01-21T05:34:07.537Z,10.57
2023-01-21T05:36:11.113Z,11.23
2023-01-21T05:38:13.810Z,11.02
2023-01-21T05:40:17.567Z,10.10
2023-01-21T05:42:20.456Z,11.43
2023-01-21T05:44:23.158Z,11.98
2023-01-21T05:46:26.060Z,11.52
2023-01-21T05:48:30.059Z,10.60
2023-01-21T05:50:34.191Z,9.93
2023-01-21T05:52:37.048Z,9.82
2023-01-21T05:54:52.529Z,10.32
2023-01-21T05:57:02.435Z,9.77
2023-01-21T05:59:05.158Z,9.68
2023-01-21T06:01:08.012Z,9.45
2023-01-21T06:03:10.705Z,9.18
2023-01-21T06:05:14.509Z,9.40
2023-01-21T06:07:18.624Z,9.25
2023-01-21T06:09:21.285Z,9.40
2023-01-21T06:11:24.233Z,9.50
2023-01-21T06:13:26.961Z,9.52
2023-01-21T06:15:29.907Z,9.43
2023-01-21T06:17:32.687Z,9.77
2023-01-21T06:19:35.414Z,9.98
2023-01-21T06:21:38.151Z,10.10
2023-01-21T06:23:42.190Z,8.95
2023-01-21T06:25:44.909Z,10.48
2023-01-21T06:27:47.629Z,9.95
2023-01-21T06:29:50.397Z,9.10
2023-01-21T06:31:53.202Z,8.98
2023-01-21T06:33:55.945Z,9.07
2023-01-21T06:35:58.682Z,8.15
2023-01-21T06:38:01.365Z,11.23
2023-01-21T06:40:07.369Z,19.08
2023-01-21T06:42:10.077Z,19.83
2023-01-21T06:44:13.009Z,17.65
2023-01-21T06:46:15.785Z,18.85
2023-01-21T06:48:18.589Z,17.17
2023-01-21T06:50:21.351Z,16.98
2023-01-21T06:52:26.883Z,16.42
2023-01-21T06:54:30.598Z,14.27
2023-01-21T06:56:36.863Z,13.48
2023-01-21T06:58:39.574Z,12.18
2023-01-21T07:00:42.260Z,9.75
2023-01-21T07:02:45.370Z,10.45
2023-01-21T07:04:49.934Z,10.80
2023-01-21T07:06:52.840Z,9.85
2023-01-21T07:08:55.584Z,9.73
2023-01-21T07:10:58.507Z,10.55
2023-01-21T07:13:02.557Z,8.90
2023-01-21T07:15:06.452Z,8.85
2023-01-21T07:17:09.214Z,10.00
2023-01-21T07:19:12.482Z,9.50
2023-01-21T07:21:15.207Z,9.20
2023-01-21T07:23:17.903Z,9.05
2023-01-21T07:25:20.747Z,9.77
2023-01-21T07:27:23.434Z,9.38
2023-01-21T07:29:28.003Z,10.00
2023-01-21T07:31:30.822Z,11.30
2023-01-21T07:33:33.557Z,11.13
2023-01-21T07:35:36.449Z,11.00
2023-01-21T07:37:39.160Z,12.00
2023-01-21T07:39:41.840Z,12.60
2023-01-21T07:41:44.519Z,12.82
2023-01-21T07:43:48.658Z,12.32
2023-01-21T07:45:52.919Z,12.15
2023-01-21T07:47:55.601Z,12.88
2023-01-21T07:49:58.273Z,11.82
2023-01-21T07:52:00.961Z,15.18
2023-01-21T07:54:03.687Z,14.98
2023-01-21T07:56:07.144Z,14.27
2023-01-21T07:58:10.704Z,11.88
2023-01-21T08:00:14.498Z,14.43
2023-01-21T08:02:18.621Z,17.08
2023-01-21T08:04:21.443Z,16.73
2023-01-21T08:06:24.167Z,15.23
2023-01-21T08:08:26.939Z,15.30
2023-01-21T08:10:29.687Z,15.85
2023-01-21T08:12:32.373Z,16.98
2023-01-21T08:14:35.655Z,16.50
2023-01-21T08:16:38.496Z,18.73
2023-01-21T08:18:42.545Z,19.15
2023-01-21T08:20:45.531Z,17.77
2023-01-21T08:22:48.282Z,17.77
2023-01-21T08:24:50.998Z,17.00
2023-01-21T08:26:53.729Z,19.35
2023-01-21T08:28:56.520Z,18.10
2023-01-21T08:31:04.737Z,18.33
2023-01-21T08:33:07.491Z,20.63
2023-01-21T08:35:12.449Z,20.23
2023-01-21T08:37:15.276Z,20.02
2023-01-21T08:39:18.022Z,31.23
2023-01-21T08:41:20.704Z,23.95
2023-01-21T08:43:23.437Z,20.10
2023-01-21T08:45:26.203Z,19.98
2023-01-21T08:47:29.072Z,19.77
2023-01-21T08:49:31.781Z,21.00
2023-01-21T08:51:36.145Z,19.80
2023-01-21T08:53:42.653Z,21.95
2023-01-21T08:55:45.425Z,21.05
2023-01-21T08:57:51.949Z,19.80
2023-01-21T08:59:54.750Z,21.65
2023-01-21T09:01:57.953Z,21.50
2023-01-21T09:04:01.921Z,21.27
2023-01-21T09:06:06.602Z,26.58
2023-01-21T09:08:10.701Z,20.48
2023-01-21T09:10:34.111Z,21.67
2023-01-21T09:12:38.245Z,20.42
2023-01-21T09:14:40.947Z,21.00
2023-01-21T09:16:43.734Z,19.70
2023-01-21T09:18:47.362Z,20.50
2023-01-21T09:20:50.121Z,18.00
2023-01-21T09:22:52.853Z,18.08
2023-01-21T09:24:56.926Z,19.25
2023-01-21T09:26:59.672Z,16.70
2023-01-21T09:29:02.894Z,18.48
2023-01-21T09:31:07.232Z,21.48
2023-01-21T09:33:09.906Z,17.67
2023-01-21T09:35:12.606Z,17.75
2023-01-21T09:37:15.348Z,18.77
2023-01-21T09:39:18.173Z,19.70
2023-01-21T09:41:27.074Z,17.77
2023-01-21T09:43:35.955Z,18.60
2023-01-21T09:45:39.616Z,17.98
2023-01-21T09:47:45.929Z,17.00
2023-01-21T09:49:52.221Z,19.17
2023-01-21T09:52:01.599Z,16.60
2023-01-21T09:54:11.767Z,18.73
2023-01-21T09:56:26.853Z,17.02
2023-01-21T09:58:38.326Z,18.45
2023-01-21T10:00:47.780Z,17.50
2023-01-21T10:02:58.884Z,17.05
2023-01-21T10:05:18.174Z,17.48
2023-01-21T10:07:27.738Z,17.27
2023-01-21T10:09:48.106Z,18.40
2023-01-21T10:12:26.117Z,19.15
2023-01-21T10:14:49.302Z,19.30
2023-01-21T10:17:03.019Z,17.33
2023-01-21T10:19:08.882Z,18.33
2023-01-21T10:21:21.611Z,12.82
2023-01-21T10:23:31.720Z,17.20
2023-01-21T10:25:37.552Z,16.23
2023-01-21T10:27:44.673Z,17.08
2023-01-21T10:29:51.423Z,15.90
2023-01-21T10:31:59.319Z,14.50
2023-01-21T10:34:02.563Z,16.17
2023-01-21T10:36:27.029Z,14.38
2023-01-21T10:38:36.249Z,15.68
2023-01-21T10:40:48.052Z,16.30
2023-01-21T10:43:04.940Z,15.43
2023-01-21T10:45:18.673Z,16.02
2023-01-21T10:47:32.327Z,16.85
2023-01-21T10:49:53.018Z,14.02
2023-01-21T10:52:01.824Z,13.77
2023-01-21T10:54:12.814Z,12.65
2023-01-21T10:56:24.004Z,14.32
2023-01-21T10:58:33.363Z,13.52
2023-01-21T11:00:42.997Z,13.00
2023-01-21T11:02:50.321Z,13.02
2023-01-21T11:04:53.391Z,14.95
2023-01-21T11:07:01.439Z,14.05
2023-01-21T11:09:06.299Z,14.45
2023-01-21T11:11:10.206Z,13.85
2023-01-21T11:13:14.849Z,14.45
2023-01-21T11:15:20.861Z,12.70
2023-01-21T11:17:32.963Z,14.60
2023-01-21T11:19:35.645Z,14.48
2023-01-21T11:21:39.957Z,14.05
2023-01-21T11:23:42.779Z,13.07
2023-01-21T11:25:45.521Z,14.55
2023-01-21T11:27:48.217Z,14.45
2023-01-21T11:29:51.557Z,15.38
2023-01-21T11:32:04.108Z,13.90
2023-01-21T11:34:08.190Z,14.45
2023-01-21T11:36:14.398Z,14.93
2023-01-21T11:38:33.227Z,17.20
2023-01-21T11:40:36.086Z,15.95
2023-01-21T11:42:48.148Z,19.40
2023-01-21T11:44:53.495Z,15.90
2023-01-21T11:46:57.607Z,16.92
2023-01-21T11:49:20.127Z,15.95
2023-01-21T11:51:23.026Z,17.23
2023-01-21T11:53:25.719Z,23.55
2023-01-21T11:55:29.877Z,18.17
2023-01-21T11:57:34.156Z,19.80
2023-01-21T11:59:41.686Z,17.50
2023-01-21T12:01:52.444Z,15.88
2023-01-21T12:04:00.732Z,13.60
2023-01-21T12:06:04.263Z,13.65
2023-01-21T12:08:08.618Z,13.68
2023-01-21T12:10:25.555Z,13.93
2023-01-21T12:12:40.536Z,13.23
2023-01-21T12:14:51.988Z,14.02
2023-01-21T12:17:09.264Z,11.57
2023-01-21T12:19:35.683Z,14.18
2023-01-21T12:21:52.528Z,12.45
2023-01-21T12:24:09.783Z,16.23
2023-01-21T12:26:39.302Z,11.48
2023-01-21T12:28:58.870Z,8.13
2023-01-21T12:31:12.088Z,7.30
2023-01-21T12:33:22.316Z,9.35
2023-01-21T12:35:33.085Z,15.75
2023-01-21T12:37:42.895Z,11.63
2023-01-21T12:39:48.433Z,12.38
2023-01-21T12:42:03.007Z,10.98
2023-01-21T12:44:21.070Z,12.70
2023-01-21T12:46:28.585Z,11.73
2023-01-21T12:48:36.730Z,12.05
2023-01-21T12:50:43.742Z,11.70
2023-01-21T12:52:57.361Z,11.55
2023-01-21T12:55:06.109Z,12.80
2023-01-21T12:57:17.598Z,12.50
2023-01-21T12:59:27.114Z,12.40
2023-01-21T13:01:47.402Z,12.73
2023-01-21T13:03:59.402Z,12.95
2023-01-21T13:06:07.294Z,12.70
2023-01-21T13:08:32.526Z,13.45
2023-01-21T13:10:38.263Z,10.60
2023-01-21T13:12:45.026Z,11.55
2023-01-21T13:14:52.076Z,11.63
2023-01-21T13:16:59.992Z,13.23
2023-01-21T13:19:02.754Z,12.25
2023-01-21T13:21:15.282Z,12.50
2023-01-21T13:23:23.575Z,13.77
2023-01-21T13:25:36.259Z,12.95
2023-01-21T13:27:46.159Z,12.32
2023-01-21T13:29:58.370Z,11.05
2023-01-21T13:32:16.451Z,11.98
2023-01-21T13:34:26.964Z,13.05
2023-01-21T13:36:55.929Z,12.32
2023-01-21T13:39:05.209Z,13.05
2023-01-21T13:41:25.832Z,13.02
2023-01-21T13:43:55.235Z,10.23
2023-01-21T13:46:09.205Z,11.00
2023-01-21T13:48:30.823Z,12.93
2023-01-21T13:50:51.481Z,10.68
2023-01-21T13:53:24.169Z,13.23
2023-01-21T13:55:39.480Z,12.15
2023-01-21T13:58:02.932Z,12.75
2023-01-21T14:00:12.811Z,11.93
2023-01-21T14:02:19.274Z,11.13
2023-01-21T14:04:30.500Z,11.35
2023-01-21T14:06:39.791Z,12.27
2023-01-21T14:08:50.751Z,11.55
2023-01-21T14:10:57.632Z,12.00
2023-01-21T14:13:29.132Z,11.02
2023-01-21T14:15:51.093Z,10.98
2023-01-21T14:18:33.631Z,10.95
2023-01-21T14:20:56.950Z,11.23
2023-01-21T14:23:25.776Z,12.40
2023-01-21T14:25:44.965Z,12.15
2023-01-21T14:27:58.155Z,14.80
2023-01-21T14:30:10.651Z,20.13
2023-01-21T14:32:21.022Z,28.95
2023-01-21T14:34:28.626Z,16.73
2023-01-21T14:36:39.338Z,10.48
2023-01-21T14:38:53.973Z,11.68
2023-01-21T14:41:07.152Z,10.68
2023-01-21T14:43:20.000Z,10.88
2023-01-21T14:45:25.844Z,12.50
2023-01-21T14:47:48.141Z,10.95
2023-01-21T14:49:52.619Z,10.85
2023-01-21T14:51:55.459Z,12.75
2023-01-21T14:54:01.292Z,10.13
2023-01-21T14:56:20.988Z,10.57
2023-01-21T14:58:28.743Z,11.30
2023-01-21T15:00:34.074Z,12.00
2023-01-21T15:02:42.502Z,12.30
2023-01-21T15:04:55.299Z,10.93
2023-01-21T15:07:01.570Z,9.93
2023-01-21T15:09:05.484Z,9.23
2023-01-21T15:11:18.460Z,9.60
2023-01-21T15:13:31.539Z,8.63
2023-01-21T15:15:36.962Z,10.32
2023-01-21T15:17:47.858Z,10.65
2023-01-21T15:19:58.157Z,9.30
2023-01-21T15:22:21.661Z,10.05
2023-01-21T15:24:26.777Z,12.15
2023-01-21T15:26:34.053Z,12.68
2023-01-21T15:28:41.569Z,11.90
2023-01-21T15:30:59.169Z,9.80
2023-01-21T15:33:02.181Z,11.40
2023-01-21T15:35:16.567Z,11.20
2023-01-21T15:37:23.632Z,10.20
2023-01-21T15:39:33.258Z,11.88
2023-01-21T15:41:47.482Z,9.38
2023-01-21T15:43:59.596Z,11.20
2023-01-21T15:46:17.240Z,11.63
2023-01-21T15:48:43.884Z,12.07
2023-01-21T15:50:53.255Z,10.13
2023-01-21T15:53:25.770Z,10.18
2023-01-21T15:55:45.657Z,9.18
2023-01-21T15:57:53.394Z,10.20
2023-01-21T16:00:22.902Z,10.77
2023-01-21T16:02:30.042Z,9.75
2023-01-21T16:04:38.731Z,10.02
2023-01-21T16:06:50.482Z,10.27
2023-01-21T16:09:04.819Z,10.27
2023-01-21T16:11:22.707Z,10.73
2023-01-21T16:13:37.119Z,10.30
2023-01-21T16:15:50.216Z,10.88
2023-01-21T16:18:07.759Z,15.23
2023-01-21T16:20:13.569Z,10.75
2023-01-21T16:22:21.929Z,10.95
2023-01-21T16:24:28.807Z,11.27
2023-01-21T16:26:33.165Z,12.13
2023-01-21T16:28:49.048Z,9.70
2023-01-21T16:30:56.546Z,10.75
2023-01-21T16:33:13.535Z,9.57
2023-01-21T16:35:16.946Z,10.57
2023-01-21T16:37:21.648Z,9.98
2023-01-21T16:39:24.932Z,9.48
2023-01-21T16:41:27.853Z,8.43
2023-01-21T16:43:30.617Z,11.90
2023-01-21T16:45:34.688Z,9.27
2023-01-21T16:47:37.793Z,10.52
2023-01-21T16:49:43.392Z,10.55
2023-01-21T16:51:54.254Z,9.18
2023-01-21T16:54:28.365Z,10.02
2023-01-21T16:56:31.321Z,10.95
2023-01-21T16:58:36.029Z,12.77
2023-01-21T17:00:40.057Z,12.40
2023-01-21T17:02:42.753Z,11.15
2023-01-21T17:04:45.494Z,9.88
2023-01-21T17:06:48.606Z,12.20
2023-01-21T17:08:55.440Z,9.95
2023-01-21T17:11:00.592Z,9.70
2023-01-21T17:13:05.715Z,10.77
2023-01-21T17:15:19.873Z,9.88
2023-01-21T17:17:25.118Z,9.95
2023-01-21T17:19:32.476Z,10.60
2023-01-21T17:21:37.960Z,9.60
2023-01-21T17:23:47.520Z,10.25
2023-01-21T17:25:56.509Z,9.88
2023-01-21T17:27:59.323Z,9.15
2023-01-21T17:30:27.505Z,9.70
2023-01-21T17:32:34.062Z,9.15
2023-01-21T17:34:39.820Z,9.82
2023-01-21T17:36:44.931Z,9.68
2023-01-21T17:38:48.697Z,9.15
2023-01-21T17:41:02.007Z,9.00
2023-01-21T17:43:18.740Z,9.18
2023-01-21T17:45:30.970Z,9.32
2023-01-21T17:47:51.945Z,9.38
2023-01-21T17:50:04.089Z,10.30
2023-01-21T17:52:06.811Z,8.55
2023-01-21T17:54:20.090Z,9.55
2023-01-21T17:56:37.577Z,9.48
2023-01-21T17:58:49.291Z,9.90
2023-01-21T18:00:52.138Z,9.85
2023-01-21T18:02:56.275Z,10.15
2023-01-21T18:04:58.949Z,10.57
2023-01-21T18:07:02.100Z,10.70
2023-01-21T18:09:05.425Z,10.77
2023-01-21T18:11:08.103Z,9.23
2023-01-21T18:13:13.140Z,9.77
2023-01-21T18:15:18.312Z,9.23
2023-01-21T18:17:24.611Z,9.38
2023-01-21T18:19:32.207Z,9.18
2023-01-21T18:21:34.863Z,9.35
2023-01-21T18:23:37.516Z,8.25
2023-01-21T18:25:40.634Z,9.00
2023-01-21T18:27:46.781Z,9.48
2023-01-21T18:29:49.546Z,9.48
2023-01-21T18:31:52.341Z,9.57
2023-01-21T18:33:55.099Z,11.25
2023-01-21T18:35:59.770Z,9.43
2023-01-21T18:38:02.505Z,10.20
2023-01-21T18:40:06.334Z,10.00
2023-01-21T18:42:12.730Z,10.55
2023-01-21T18:44:16.136Z,10.30
2023-01-21T18:46:19.807Z,11.10
2023-01-21T18:48:28.492Z,10.82
2023-01-21T18:50:31.571Z,10.18
2023-01-21T18:52:35.742Z,10.57
2023-01-21T18:54:38.516Z,10.50
2023-01-21T18:56:42.404Z,10.70
2023-01-21T18:58:45.172Z,10.77
2023-01-21T19:00:48.064Z,10.57
2023-01-21T19:02:53.479Z,11.43
2023-01-21T19:04:56.210Z,10.35
2023-01-21T19:06:58.996Z,12.70
2023-01-21T19:09:03.061Z,12.05
2023-01-21T19:11:06.014Z,11.48
2023-01-21T19:13:09.897Z,11.73
2023-01-21T19:15:15.992Z,12.38
2023-01-21T19:17:26.767Z,12.18
2023-01-21T19:19:29.509Z,12.10
2023-01-21T19:21:32.337Z,12.05
2023-01-21T19:23:35.787Z,12.50
2023-01-21T19:25:39.891Z,12.82
2023-01-21T19:27:45.235Z,12.70
2023-01-21T19:29:48.074Z,11.93
2023-01-21T19:31:50.876Z,11.88
2023-01-21T19:33:53.892Z,12.00
2023-01-21T19:36:01.356Z,12.38
2023-01-21T19:38:10.616Z,12.32
2023-01-21T19:40:18.007Z,13.70
2023-01-21T19:42:22.170Z,12.95
2023-01-21T19:44:24.958Z,12.57
2023-01-21T19:46:28.794Z,11.90
2023-01-21T19:48:31.671Z,13.40
2023-01-21T19:50:34.374Z,14.63
2023-01-21T19:52:38.052Z,10.93
2023-01-21T19:54:40.721Z,11.70
2023-01-21T19:56:43.437Z,11.25
2023-01-21T19:58:48.811Z,11.52
2023-01-21T20:00:53.570Z,10.07
2023-01-21T20:02:56.768Z,10.95
2023-01-21T20:04:59.442Z,11.88
2023-01-21T20:07:02.336Z,11.07
2023-01-21T20:09:06.037Z,10.00
2023-01-21T20:11:08.739Z,11.15
2023-01-21T20:13:13.052Z,10.73
2023-01-21T20:15:18.915Z,10.05
2023-01-21T20:17:22.183Z,9.35
2023-01-21T20:19:24.984Z,11.13
2023-01-21T20:21:27.737Z,11.25
2023-01-21T20:23:32.535Z,10.73
2023-01-21T20:25:38.759Z,11.02
2023-01-21T20:27:41.583Z,11.20
2023-01-21T20:29:55.673Z,11.05
2023-01-21T20:32:00.063Z,11.88
2023-01-21T20:34:02.844Z,10.30
2023-01-21T20:36:07.826Z,12.05
2023-01-21T20:38:14.278Z,11.75
2023-01-21T20:40:20.151Z,11.57
2023-01-21T20:42:22.906Z,11.98
2023-01-21T20:44:25.594Z,11.88
2023-01-21T20:46:30.424Z,11.68
2023-01-21T20:48:37.278Z,11.57
2023-01-21T20:50:39.952Z,12.15
2023-01-21T20:52:42.634Z,14.50
2023-01-21T20:54:45.307Z,13.27
2023-01-21T20:56:48.230Z,12.07
2023-01-21T20:58:50.971Z,10.30
2023-01-21T21:00:53.675Z,10.27
2023-01-21T21:02:57.589Z,10.10
2023-01-21T21:05:01.680Z,10.82
2023-01-21T21:07:04.395Z,9.50
2023-01-21T21:09:07.036Z,10.55
2023-01-21T21:11:10.164Z,10.38
2023-01-21T21:13:14.038Z,9.90
2023-01-21T21:15:19.351Z,10.30
2023-01-21T21:17:22.673Z,10.38
2023-01-21T21:19:25.388Z,10.07
2023-01-21T21:21:29.487Z,10.35
2023-01-21T21:23:32.140Z,10.63
2023-01-21T21:25:42.213Z,10.23
2023-01-21T21:27:45.830Z,10.40
2023-01-21T21:29:48.564Z,9.77
2023-01-21T21:31:52.027Z,10.38
2023-01-21T21:33:54.761Z,10.18
2023-01-21T21:35:57.950Z,11.23
2023-01-21T21:38:06.158Z,9.32
2023-01-21T21:40:10.420Z,10.20
2023-01-21T21:42:32.212Z,11.10
2023-01-21T21:44:36.253Z,9.85
2023-01-21T21:46:57.569Z,10.35
2023-01-21T21:49:01.170Z,11.63
2023-01-21T21:51:04.732Z,11.65
2023-01-21T21:53:12.169Z,11.00
2023-01-21T21:55:19.312Z,10.10
2023-01-21T21:57:22.176Z,10.25
2023-01-21T21:59:25.978Z,9.52
2023-01-21T22:01:31.093Z,10.50
2023-01-21T22:03:33.908Z,10.48
2023-01-21T22:05:37.686Z,11.27
2023-01-21T22:07:40.423Z,8.52
2023-01-21T22:09:44.486Z,9.35
2023-01-21T22:11:47.201Z,9.15
2023-01-21T22:13:51.759Z,9.07
2023-01-21T22:15:55.692Z,9.73
2023-01-21T22:17:58.398Z,9.10
2023-01-21T22:20:01.151Z,10.18
2023-01-21T22:22:03.866Z,9.65
2023-01-21T22:24:08.220Z,10.63
2023-01-21T22:26:15.081Z,9.10
2023-01-21T22:28:20.115Z,10.02
2023-01-21T22:30:22.951Z,9.45
2023-01-21T22:32:25.727Z,10.48
2023-01-21T22:34:28.452Z,10.48
2023-01-21T22:36:32.276Z,9.93
2023-01-21T22:38:36.151Z,9.65
2023-01-21T22:40:40.156Z,10.20
2023-01-21T22:42:44.228Z,10.05
2023-01-21T22:44:46.952Z,10.18
2023-01-21T22:46:49.639Z,9.52
2023-01-21T22:48:53.620Z,8.43
2023-01-21T22:50:58.868Z,8.48
2023-01-21T22:53:01.639Z,8.98
2023-01-21T22:55:04.794Z,9.50
2023-01-21T22:57:07.572Z,9.75
2023-01-21T22:59:11.677Z,9.35
2023-01-21T23:01:24.955Z,9.20
2023-01-21T23:03:29.011Z,9.32
2023-01-21T23:05:32.807Z,9.23
2023-01-21T23:07:35.605Z,8.82
2023-01-21T23:09:38.362Z,8.95
2023-01-21T23:11:41.539Z,8.55
2023-01-21T23:13:44.686Z,9.20
2023-01-21T23:15:48.826Z,8.18
2023-01-21T23:17:53.653Z,7.78
2023-01-21T23:19:56.362Z,7.95
2023-01-21T23:21:59.080Z,8.52
2023-01-21T23:24:01.812Z,8.23
2023-01-21T23:26:05.656Z,7.72
2023-01-21T23:28:08.534Z,7.63
2023-01-21T23:30:14.157Z,7.70
2023-01-21T23:32:18.182Z,7.85
2023-01-21T23:34:22.686Z,7.97
2023-01-21T23:36:25.641Z,6.97
2023-01-21T23:38:28.953Z,7.63
2023-01-21T23:40:31.675Z,7.47
2023-01-21T23:42:34.420Z,7.45
2023-01-21T23:44:37.118Z,7.35
2023-01-21T23:46:39.980Z,7.20
2023-01-21T23:48:44.347Z,7.35
2023-01-21T23:50:47.052Z,7.20
2023-01-21T23:52:49.819Z,6.97
2023-01-21T23:54:52.670Z,7.07
2023-01-21T23:56:56.203Z,6.68
2023-01-21T23:58:58.901Z,6.47
